• Join FlightAware (Why Join?)
  • Login
  • US Flag 
09:55AM EDT


 

Airport Tracker/Info


-or-


 

Live Flight TrackerFlight Track Log ✈ FLG4202 ✈ 26-Apr-2013 ✈ KDTW - KSYR

Flight Track Log - Related Links

Times and Time Zones

All times are in EDT time to prevent confusion due to time zone crossing. See the FLG4202 flight status page for this flight to view local times or setup timezone preferences in your user account.

Time Position Orientation Groundspeed Altitude Reporting Facility
EDT Latitude Longitude Course Direction KTS MPH feet Rate Location/Type
12:55PM 42.2036 -83.3556 56° Northeast 163 188 1,300  Level Cleveland Center
12:57PM 42.1328 -83.3608 183° South 202 232 5,100 2,340 Climbing Cleveland Center
12:58PM 42.0881 -83.3142 142° Southeast 289 333 6,800 1,860 Climbing Cleveland Center
12:59PM 42.3139 -82.7638 75° East  Level FlightAware Approximate
01:00PM 42.3303 -82.6138 82° East  Level FlightAware Approximate
01:00PM 42.0989 -83.1103 86° East 321 369 10,300  Level Cleveland Center
01:01PM 42.3572 -82.4690 56° Northeast  Level FlightAware Approximate
01:01PM 42.1469 -83.0028 59° Northeast 327 376 12,800  Level Cleveland Center
01:02PM 42.1933 -82.8869 62° Northeast 337 388 14,900 2,040 Climbing Cleveland Center
01:03PM 42.2414 -82.7653 62° Northeast 348 400 16,900 1,680 Climbing Cleveland Center
01:04PM 42.2917 -82.6433 61° Northeast 353 406 18,300 1,320 Climbing Cleveland Center
01:05PM 42.3419 -82.5158 62° Northeast 363 418 19,600 1,320 Climbing Cleveland Center
01:06PM 42.3650 -82.3706 78° East 374 430 21,000 1,200 Climbing Cleveland Center
01:07PM 42.3569 -82.2100 94° East 396 456 22,100 900 Climbing Cleveland Center
01:08PM 42.3528 -82.0667 92° East 416 479 22,900 900 Climbing Cleveland Center
01:09PM 42.3464 -81.8978 93° East 436 502 24,000 960 Climbing Cleveland Center
01:10PM 42.3378 -81.7292 94° East 445 512 24,900 840 Climbing Cleveland Center
01:11PM 42.3269 -81.5550 95° East 456 525 25,700 900 Climbing Cleveland Center
01:12PM 42.3178 -81.3667 94° East 461 531 26,700 1,020 Climbing Cleveland Center
01:13PM 42.3106 -81.1897 93° East 461 531 27,800 1,020 Climbing Cleveland Center
01:14PM 42.3011 -81.0128 94° East 461 531 28,800 600 Climbing Cleveland Center
01:15PM 42.2911 -80.8358 94° East 466 536 29,000 60 Climbing Cleveland Center
01:16PM 42.2831 -80.6506 93° East 476 548 29,000  Level Cleveland Center
01:17PM 42.2725 -80.4653 94° East 490 564 29,000  Level Cleveland Center
01:18PM 42.2619 -80.2803 94° East 495 570 29,000  Level Cleveland Center
01:19PM 42.2528 -80.1006 94° East 495 570 29,000  Level Cleveland Center
01:20PM 42.2436 -79.9408 94° East 488 562 29,000  Level Cleveland Center
01:21PM 42.2300 -79.7617 96° East 477 549 29,000  Level Cleveland Center
01:22PM 42.2183 -79.5822 95° East 477 549 29,000  Level Cleveland Center
01:23PM 42.2061 -79.4058 95° East 477 549 29,000  Level Cleveland Center
01:24PM 42.1958 -79.2239 94° East 477 549 29,000  Level Cleveland Center
01:25PM 42.2103 -79.0469 84° East 484 557 29,000  Level Cleveland Center
01:26PM 42.2686 -78.8911 63° Northeast 454 522 29,000  Level Cleveland Center
01:27PM 42.3264 -78.7294 64° Northeast 459 528 29,000  Level Cleveland Center
01:28PM 42.3822 -78.5706 65° Northeast 459 528 29,000  Level Cleveland Center
01:29PM 42.4378 -78.4111 65° Northeast 464 534 29,000  Level Cleveland Center
01:30PM 42.4908 -78.2517 66° East 464 534 29,000  Level Cleveland Center
01:31PM 42.5458 -78.0889 65° Northeast 464 534 29,000 -240 Level Cleveland Center
01:32PM 42.6006 -77.9289 65° Northeast 464 534 28,600 -900 Descending Cleveland Center
01:33PM 42.6675 -77.7622 61° Northeast 464 534 27,200 -1,260 Descending Cleveland Center
01:34PM 42.7458 -77.6428 48° Northeast 458 527 26,100 -660 Descending Cleveland Center
01:35PM 42.8283 -77.5228 47° Northeast 447 514 25,900 -1,080 Descending Cleveland Center
01:36PM 42.8911 -77.3864 58° Northeast 435 501 24,000 -2,040 Descending Cleveland Center
01:37PM 42.9303 -77.2200 72° East 419 482 21,900 -2,100 Descending Cleveland Center
01:39PM 42.9975 -76.9347 72° East 401 461 17,900 -2,040 Descending Boston Center
01:40PM 43.0278 -76.7978 73° East 378 435 15,900 -2,340 Descending Boston Center
01:41PM 43.0600 -76.6636 72° East 369 425 13,300 -2,460 Descending Boston Center
01:42PM 43.0922 -76.5206 73° East 330 380 10,700 -2,280 Descending Boston Center
01:43PM 43.1128 -76.4139 75° East 273 314 8,500 -2,040 Descending Boston Center
01:44PM 43.1322 -76.3325 72° East 268 308 6,800 -1,740 Descending Boston Center
01:45PM 43.1589 -76.2175 72° East 271 312 5,100 -1,080 Descending Boston Center
01:46PM 43.1664 -76.1156 84° East 264 304 4,600 -540 Descending Boston Center
01:47PM 43.1761 -76.0136 83° East 247 284 4,000 -300 Descending Boston Center
01:48PM 43.1869 -75.9317 80° East 245 282 4,000 -420 Level Boston Center
01:49PM 43.1361 -75.8831 145° Southeast 246 283 3,300 -780 Descending Boston Center
01:50PM 43.0928 -75.9406 224° Southwest 212 244 2,500 -840 Descending Boston Center